EW1141 Weather Reports


Display with metric or nautical units.
time (UTC)temp
F
wind
direction
speed
MPH
gust
MPH
rain 1hr
in
rain 24hr
in
rain mn
in
humidity
%
barometer
mb
20200408224027 66 30 11.0 16.0 0.00 0.00 0.00 31 1014.4
20200408223032 65 50 14.0 19.0 0.00 0.00 0.00 29 1014.5
20200408222018 65 78 12.0 18.0 0.00 0.00 0.00 29 1014.6
20200408221023 65 70 14.0 20.0 0.00 0.00 0.00 28 1014.6
20200408220028 65 65 14.0 19.0 0.00 0.00 0.00 27 1014.6
20200408215032 65 73 13.0 18.0 0.00 0.00 0.00 27 1014.6
20200408214019 65 54 17.0 21.0 0.00 0.00 0.00 28 1014.6
20200408213024 66 42 10.0 14.0 0.00 0.00 0.00 29 1014.9
20200408212028 66 66 13.0 17.0 0.00 0.00 0.00 28 1014.9
20200408211015 68 121 15.0 19.0 0.00 0.00 0.00 28 1014.9
20200408210020 67 83 12.0 15.0 0.00 0.00 0.00 30 1014.9
20200408205024 66 57 9.0 11.0 0.00 0.00 0.00 33 1015.2
20200408204024 64 42 17.0 21.0 0.00 0.00 0.00 35 1015.2
20200408203016 64 38 17.0 22.0 0.00 0.00 0.00 35 1015.4
20200408202021 65 47 16.0 19.0 0.00 0.00 0.00 33 1015.4
20200408201019 65 101 11.0 16.0 0.00 0.00 0.00 33 1015.4
20200408200018 66 73 15.0 19.0 0.00 0.00 0.00 34 1015.4
20200408195017 64 64 15.0 23.0 0.00 0.00 0.00 36 1015.6
20200408194015 62 36 16.0 19.0 0.00 0.00 0.00 38 1015.6
20200408193026 62 52 15.0 20.0 0.00 0.00 0.00 39 1015.9
20200408192031 63 42 12.0 17.0 0.00 0.00 0.00 39 1016.0
20200408191018 62 48 11.0 17.0 0.00 0.00 0.00 39 1016.1
20200408190022 62 4 9.0 12.0 0.00 0.00 0.00 44 1016.2
20200408185027 60 18 10.0 13.0 0.00 0.00 0.00 46 1016.4
20200408184031 59 29 12.0 18.0 0.00 0.00 0.00 46 1016.6
20200408183018 60 17 12.0 14.0 0.00 0.00 0.00 46 1016.6
20200408182023 62 12 13.0 17.0 0.00 0.00 0.00 45 1016.6
20200408181028 60 28 13.0 17.0 0.00 0.00 0.00 45 1016.6
20200408180032 59 32 15.0 20.0 0.00 0.00 0.00 46 1016.6
20200408175019 60 36 13.0 16.0 0.00 0.00 0.00 45 1016.8
20200408174024 60 22 13.0 18.0 0.00 0.00 0.00 46 1016.9
20200408173029 60 41 12.0 17.0 0.00 0.00 0.00 45 1016.8
20200408172015 58 349 11.0 17.0 0.00 0.00 0.00 48 1016.9
20200408171020 57 294 9.0 15.0 0.00 0.00 0.00 50 1017.0
20200408170025 57 328 9.0 11.0 0.00 0.00 0.00 49 1017.2
20200408165029 56 338 6.0 10.0 0.00 0.00 0.00 50 1017.2
20200408164016 56 21 7.0 10.0 0.00 0.00 0.00 51 1017.1
20200408163021 56 25 9.0 12.0 0.00 0.00 0.00 51 1017.1
20200408162025 55 360 8.0 9.0 0.00 0.00 0.00 52 1017.0
20200408161030 54 15 3.0 7.0 0.00 0.00 0.00 53 1017.1
20200408160017 55 17 5.0 8.0 0.00 0.00 0.00 53 1017.2
20200408155021 53 343 3.0 8.0 0.00 0.00 0.00 58 1017.2
20200408154026 49 338 1.0 3.0 0.00 0.00 0.00 67 1017.4
20200408153031 49 13 2.0 5.0 0.00 0.00 0.00 68 1017.5
20200408152017 49 338 0.0 2.0 0.00 0.00 0.00 65 1017.5
20200408151022 44 180 1.0 2.0 0.00 0.00 0.00 77 1017.5
20200408150027 42 358 1.0 3.0 0.00 0.00 0.00 79 1017.5
20200408145032 39 0.0 0.0 0.00 0.00 0.00 83 1017.4
20200408144018 37 0.0 0.0 0.00 0.00 0.00 85 1017.4
20200408143023 38 27 1.0 4.0 0.00 0.00 0.00 82 1017.2
20200408142027 38 113 0.0 2.0 0.00 0.00 0.00 82 1017.2
20200408141032 36 0.0 0.0 0.00 0.00 0.00 85 1017.0
20200408140019 37 166 2.0 5.0 0.00 0.01 0.00 82 1016.8
20200408135023 34 107 1.0 5.0 0.00 0.01 0.00 88 1016.8
20200408134029 34 285 3.0 6.0 0.00 0.01 0.00 88 1016.6
20200408133015 34 0.0 0.0 0.00 0.01 0.00 89 1016.6
20200408132019 33 266 2.0 4.0 0.00 0.01 0.00 90 1016.5
20200408131024 33 0.0 0.0 0.00 0.01 0.00 88 1016.4
20200408130023 34 0.0 0.0 0.00 0.01 0.00 89 1016.4
20200408125016 33 0.0 0.0 0.00 0.01 0.00 89 1016.4
20200408124021 34 0.0 0.0 0.00 0.01 0.00 88 1016.2
20200408123020 34 203 2.0 4.0 0.00 0.01 0.00 89 1016.4
20200408122018 33 101 2.0 5.0 0.00 0.01 0.00 89 1016.4
20200408121017 33 105 1.0 4.0 0.00 0.01 0.00 89 1016.4
20200408120016 34 184 3.0 5.0 0.00 0.01 0.00 88 1016.4
20200408115026 32 0.0 0.0 0.00 0.01 0.00 90 1016.4
20200408114031 32 62 1.0 3.0 0.00 0.01 0.00 90 1016.4
20200408113018 33 0.0 0.0 0.00 0.01 0.00 89 1016.4
20200408112024 33 248 1.0 3.0 0.00 0.01 0.00 88 1016.4
20200408111027 34 275 3.0 6.0 0.00 0.01 0.00 87 1016.4
20200408110032 35 253 4.0 5.0 0.00 0.01 0.00 85 1016.4
20200408105019 36 242 4.0 6.0 0.00 0.01 0.00 86 1016.4
20200408104023 35 0.0 0.0 0.00 0.01 0.00 86 1016.6
20200408103028 35 0.0 0.0 0.00 0.01 0.00 85 1016.6
20200408102033 35 90 0.0 1.0 0.00 0.01 0.00 85 1016.6
20200408101019 36 0.0 0.0 0.00 0.01 0.00 83 1016.6
20200408100024 35 232 3.0 4.0 0.00 0.01 0.00 87 1016.8
20200408095029 34 0.0 0.0 0.00 0.01 0.00 87 1016.9
20200408094015 34 0.0 0.0 0.00 0.02 0.00 86 1016.8
20200408093020 34 180 0.0 1.0 0.00 0.02 0.00 87 1016.6
20200408092025 35 0.0 0.0 0.00 0.02 0.00 84 1016.7
20200408091029 36 0.0 0.0 0.00 0.02 0.00 82 1016.8
20200408090016 37 113 1.0 3.0 0.00 0.02 0.00 80 1016.9
20200408085021 39 152 1.0 3.0 0.00 0.02 0.00 76 1016.9
20200408084025 40 202 3.0 4.0 0.00 0.04 0.00 74 1017.1
20200408083029 38 216 3.0 4.0 0.00 0.04 0.00 78 1017.2
20200408082016 40 0.0 0.0 0.00 0.05 0.00 74 1017.4
20200408081021 39 0.0 0.0 0.00 0.06 0.00 78 1017.5
20200408080026 40 180 1.0 3.0 0.00 0.06 0.00 75 1017.5
20200408075031 39 248 1.0 3.0 0.00 0.06 0.00 75 1017.5
20200408074017 40 0.0 0.0 0.00 0.06 0.00 72 1017.5
20200408073022 39 0.0 0.0 0.00 0.06 0.00 75 1017.5
20200408072026 39 0.0 0.0 0.00 0.06 0.00 75 1017.5
20200408071031 39 0.0 0.0 0.00 0.06 0.00 75 1017.6
20200408070018 40 353 1.0 4.0 0.00 0.06 0.00 74 1017.7
20200408065023 41 102 3.0 5.0 0.00 0.06 0.06 71 1017.7
20200408064028 40 242 5.0 6.0 0.00 0.06 0.06 73 1017.6
20200408063031 43 227 5.0 6.0 0.00 0.06 0.06 66 1017.5
20200408062017 41 205 5.0 6.0 0.00 0.06 0.06 71 1017.4
20200408061022 43 218 4.0 5.0 0.00 0.06 0.06 67 1017.3
20200408060027 41 203 4.0 4.0 0.00 0.06 0.06 71 1017.2
20200408055026 39 0.0 0.0 0.00 0.06 0.06 75 1017.2
20200408054019 40 0.0 0.0 0.00 0.06 0.06 71 1017.2
20200408053024 41 39 1.0 4.0 0.00 0.06 0.06 69 1017.2
20200408052022 42 250 2.0 4.0 0.00 0.06 0.06 67 1017.3
20200408051021 43 119 0.0 3.0 0.00 0.06 0.06 64 1017.4
20200408050020 44 206 3.0 4.0 0.00 0.06 0.06 64 1017.4
20200408045018 46 203 5.0 6.0 0.00 0.06 0.06 58 1017.2
20200408044017 45 203 4.0 4.0 0.00 0.06 0.06 59 1017.4
20200408043015 45 231 4.0 5.0 0.00 0.06 0.06 60 1017.4
20200408042020 45 241 1.0 5.0 0.00 0.06 0.06 59 1017.2
20200408041024 46 180 1.0 3.0 0.00 0.06 0.06 57 1017.2
20200408040030 47 169 3.0 4.0 0.00 0.06 0.06 54 1017.1
20200408035016 46 0.0 0.0 0.00 0.06 0.06 54 1016.9
20200408034021 48 0.0 0.0 0.00 0.06 0.06 52 1016.8
20200408033026 47 0.0 0.0 0.00 0.06 0.06 54 1016.6
20200408032030 47 183 1.0 4.0 0.00 0.06 0.06 53 1016.6
20200408031018 47 0.0 0.0 0.00 0.06 0.06 53 1016.5
20200408030022 48 0.0 0.0 0.00 0.06 0.06 50 1016.4
20200408025027 49 83 1.0 3.0 0.00 0.06 0.06 48 1016.2
20200408024031 50 75 3.0 4.0 0.00 0.06 0.06 46 1016.2
20200408023018 51 92 1.0 5.0 0.00 0.06 0.06 45 1016.2
20200408022023 52 116 1.0 3.0 0.00 0.06 0.06 43 1016.1
20200408021028 53 49 3.0 4.0 0.00 0.06 0.06 42 1016.0
20200408020032 54 100 4.0 9.0 0.00 0.06 0.06 40 1015.9
20200408015019 54 79 6.0 8.0 0.00 0.06 0.06 38 1015.9
20200408014024 54 106 5.0 7.0 0.00 0.06 0.06 38 1016.0
20200408013028 55 64 9.0 11.0 0.00 0.06 0.06 36 1015.9
20200408012015 55 75 11.0 13.0 0.00 0.06 0.06 39 1016.0
20200408011019 57 111 11.0 15.0 0.00 0.06 0.06 38 1016.0
20200408010025 58 76 10.0 12.0 0.00 0.06 0.06 38 1016.0
20200408005029 57 83 7.0 10.0 0.00 0.06 0.06 38 1016.0
20200408004016 58 90 10.0 14.0 0.00 0.06 0.06 36 1015.9
20200408003021 59 94 8.0 10.0 0.00 0.06 0.06 37 1015.9
20200408002025 59 74 9.0 11.0 0.00 0.06 0.06 36 1016.0
20200408001030 59 83 9.0 12.0 0.00 0.06 0.06 36 1016.0
20200408000017 59 82 10.0 15.0 0.00 0.06 0.06 36 1016.1
20200407235022 59 68 11.0 16.0 0.00 0.06 0.06 36 1016.1
20200407234026 59 95 9.0 12.0 0.00 0.06 0.06 35 1016.1
20200407233031 59 106 8.0 11.0 0.00 0.06 0.06 35 1016.2
20200407232018 59 102 10.0 12.0 0.00 0.06 0.06 37 1016.3
20200407231023 59 39 9.0 13.0 0.00 0.06 0.06 44 1016.4
20200407230027 58 137 6.0 8.0 0.00 0.06 0.06 40 1016.4
20200407225032 58 113 9.0 14.0 0.00 0.06 0.06 39 1016.4